Terminal Aerodrome Forecast
Issued by NWS Knoxville/Tri Cities, TN

Home | Current Version | Previous Version | Text Only | Print | Product List | Glossary On
Versions: 1 2 3 4 5 6 7 8 9 10 11 12
000
FTUS44 KMRX 271136
TAFCHA
TAF
KCHA 271136Z 2712/2812 00000KT P6SM SCT070 SCT250
     FM271400 19005KT P6SM SCT050 BKN100
     FM272000 20006KT P6SM VCTS SCT050CB BKN250
     FM280000 VRB03KT P6SM BKN250
     FM280600 00000KT P6SM BKN250=

USA.gov is the U.S. government's official web portal to all federal, state and local government web resources and services.